createdAt,value
2018-05-29T00:00:23.911Z,0.00
2018-05-29T00:01:23.779Z,0.00
2018-05-29T00:02:23.827Z,0.00
2018-05-29T00:03:23.782Z,0.00
2018-05-29T00:04:23.798Z,0.00
2018-05-29T00:05:23.828Z,0.00
2018-05-29T00:06:23.885Z,0.00
2018-05-29T00:07:23.862Z,0.00
2018-05-29T00:08:23.799Z,0.00
2018-05-29T00:09:23.806Z,0.00
2018-05-29T00:10:23.814Z,0.00
2018-05-29T00:11:23.787Z,0.00
2018-05-29T00:12:23.757Z,0.00
2018-05-29T00:13:23.747Z,0.00
2018-05-29T00:14:23.810Z,0.00
2018-05-29T00:15:23.782Z,0.00
2018-05-29T00:16:23.860Z,0.00
2018-05-29T00:17:23.839Z,0.00
2018-05-29T00:18:23.762Z,0.00
2018-05-29T00:19:23.759Z,0.00
2018-05-29T00:20:23.756Z,0.00
2018-05-29T00:21:23.729Z,0.00
2018-05-29T00:22:23.790Z,0.00
2018-05-29T00:23:23.781Z,0.00
2018-05-29T00:24:23.724Z,0.00
2018-05-29T00:25:23.765Z,0.00
2018-05-29T00:26:23.794Z,0.00
2018-05-29T00:27:23.842Z,0.00
2018-05-29T00:28:23.754Z,0.00
2018-05-29T00:29:23.747Z,0.00
2018-05-29T00:30:23.744Z,0.00
2018-05-29T00:31:23.756Z,0.00
2018-05-29T00:32:23.697Z,0.00
2018-05-29T00:33:23.758Z,0.00
2018-05-29T00:34:23.721Z,0.00
2018-05-29T00:35:23.720Z,0.00
2018-05-29T00:36:23.701Z,0.00
2018-05-29T00:37:23.733Z,0.00
2018-05-29T00:38:23.687Z,0.00
2018-05-29T00:39:23.700Z,0.00
2018-05-29T00:40:23.697Z,0.00
2018-05-29T00:41:23.698Z,0.00
2018-05-29T00:42:23.662Z,0.00
2018-05-29T00:43:23.686Z,0.00
2018-05-29T00:44:23.762Z,0.00
2018-05-29T00:45:23.659Z,0.00
2018-05-29T00:46:23.659Z,0.00
2018-05-29T00:47:23.688Z,0.00
2018-05-29T00:48:23.697Z,0.00
2018-05-29T00:49:23.707Z,0.00
2018-05-29T00:50:23.708Z,0.00
2018-05-29T00:51:23.653Z,0.00
2018-05-29T00:52:23.676Z,0.00
2018-05-29T00:53:23.647Z,0.00
2018-05-29T00:54:23.631Z,0.00
2018-05-29T00:55:23.742Z,0.00
2018-05-29T00:56:23.677Z,0.00
2018-05-29T00:57:23.693Z,0.00
2018-05-29T00:58:23.642Z,0.00
2018-05-29T00:59:23.641Z,0.00
2018-05-29T01:00:23.663Z,0.00
2018-05-29T01:01:23.649Z,0.00
2018-05-29T01:02:23.744Z,0.00
2018-05-29T01:03:23.620Z,0.00
2018-05-29T01:04:23.626Z,0.00
2018-05-29T01:05:23.647Z,0.00
2018-05-29T01:06:23.626Z,0.00
2018-05-29T01:07:23.664Z,0.00
2018-05-29T01:08:23.633Z,0.00
2018-05-29T01:09:23.640Z,0.00
2018-05-29T01:10:23.607Z,0.00
2018-05-29T01:11:23.634Z,0.00
2018-05-29T01:12:23.610Z,0.00
2018-05-29T01:13:23.677Z,0.00
2018-05-29T01:14:23.624Z,0.00
2018-05-29T01:15:23.685Z,0.00
2018-05-29T01:16:23.601Z,0.00
2018-05-29T01:17:23.600Z,0.00
2018-05-29T01:18:23.582Z,0.00
2018-05-29T01:19:23.636Z,0.00
2018-05-29T01:20:23.572Z,0.00
2018-05-29T01:21:23.559Z,0.00
2018-05-29T01:22:23.578Z,0.00
2018-05-29T01:23:23.574Z,0.00
2018-05-29T01:24:23.595Z,0.00
2018-05-29T01:25:23.617Z,0.00
2018-05-29T01:26:23.581Z,0.00
2018-05-29T01:27:23.596Z,0.00
2018-05-29T01:28:23.669Z,0.00
2018-05-29T01:29:23.583Z,0.00
2018-05-29T01:30:23.604Z,0.00
2018-05-29T02:03:12.253Z,0.00
2018-05-29T02:04:12.219Z,0.00
2018-05-29T02:06:05.238Z,0.00
2018-05-29T02:07:05.217Z,0.00
2018-05-29T02:08:05.207Z,0.00
2018-05-29T02:09:05.198Z,0.00
2018-05-29T02:10:05.189Z,0.00
2018-05-29T02:11:05.189Z,0.00
2018-05-29T02:12:05.178Z,0.00
2018-05-29T02:13:05.223Z,0.00
2018-05-29T02:14:05.163Z,0.00
2018-05-29T02:15:05.202Z,0.00
2018-05-29T02:16:05.161Z,0.00
2018-05-29T02:17:05.198Z,0.00
2018-05-29T02:18:05.146Z,0.00
2018-05-29T02:19:05.147Z,0.00
2018-05-29T02:20:05.136Z,0.00
2018-05-29T02:21:05.137Z,0.00
2018-05-29T02:22:05.131Z,0.00
2018-05-29T02:23:05.127Z,0.00
2018-05-29T02:24:05.123Z,0.00
2018-05-29T02:25:05.118Z,0.00
2018-05-29T02:26:05.126Z,0.00
2018-05-29T02:27:05.111Z,0.00
2018-05-29T02:28:05.113Z,0.00
2018-05-29T02:29:05.111Z,0.00
2018-05-29T02:30:05.101Z,0.00
2018-05-29T02:31:05.100Z,0.00
2018-05-29T02:32:05.095Z,0.00
2018-05-29T02:33:05.095Z,0.00
2018-05-29T02:34:05.089Z,0.00
2018-05-29T02:35:05.099Z,0.00
2018-05-29T02:36:05.083Z,0.00
2018-05-29T02:37:12.234Z,0.00
2018-05-29T02:38:58.049Z,0.00
2018-05-29T02:39:59.033Z,0.00
2018-05-29T02:41:50.984Z,0.00
2018-05-29T02:42:50.970Z,0.00
2018-05-29T02:44:43.981Z,0.00
2018-05-29T02:45:43.961Z,0.00
2018-05-29T02:47:36.986Z,0.00
2018-05-29T02:48:36.968Z,4.00
2018-05-29T02:50:29.908Z,0.00
2018-05-29T02:51:29.883Z,0.00
2018-05-29T02:53:22.844Z,4.00
2018-05-29T02:54:22.812Z,4.00
2018-05-29T02:56:15.729Z,4.00
2018-05-29T02:57:15.713Z,4.00
2018-05-29T02:59:08.646Z,8.00
2018-05-29T03:00:08.631Z,8.00
2018-05-29T03:02:01.538Z,8.00
2018-05-29T03:03:01.537Z,12.00
2018-05-29T03:04:54.433Z,12.00
2018-05-29T03:05:54.413Z,16.00
2018-05-29T03:07:47.348Z,20.00
2018-05-29T03:08:47.338Z,24.00
2018-05-29T03:10:40.269Z,32.00
2018-05-29T03:11:40.241Z,32.00
2018-05-29T03:13:33.194Z,44.00
2018-05-29T03:14:33.190Z,52.00
2018-05-29T03:16:26.132Z,68.00
2018-05-29T03:17:26.109Z,80.00
2018-05-29T03:19:19.066Z,104.00
2018-05-29T03:20:19.045Z,116.00
2018-05-29T03:22:12.047Z,148.00
2018-05-29T03:23:12.035Z,176.00
2018-05-29T03:25:05.034Z,228.00
2018-05-29T03:26:05.009Z,256.00
2018-05-29T03:27:57.942Z,320.00
2018-05-29T03:28:57.935Z,356.00
2018-05-29T03:30:50.853Z,416.00
2018-05-29T03:31:50.839Z,436.00
2018-05-29T03:33:43.763Z,472.00
2018-05-29T03:34:43.739Z,500.00
2018-05-29T03:36:36.717Z,552.00
2018-05-29T03:37:36.699Z,592.00
2018-05-29T03:39:29.608Z,688.00
2018-05-29T03:40:29.618Z,736.00
2018-05-29T03:42:22.519Z,820.00
2018-05-29T03:43:22.498Z,868.00
2018-05-29T03:45:15.517Z,944.00
2018-05-29T03:46:15.488Z,984.00
2018-05-29T03:48:08.484Z,1076.00
2018-05-29T03:49:08.477Z,1128.00
2018-05-29T03:51:01.448Z,1224.00
2018-05-29T03:52:01.432Z,1272.00
2018-05-29T03:53:54.402Z,1380.00
2018-05-29T03:54:54.399Z,1436.00
2018-05-29T03:56:47.318Z,1544.00
2018-05-29T03:57:47.292Z,1592.00
2018-05-29T03:59:40.223Z,1664.00
2018-05-29T04:00:40.208Z,1704.00
2018-05-29T04:02:33.234Z,1784.00
2018-05-29T04:03:33.215Z,1828.00
2018-05-29T04:05:26.112Z,1900.00
2018-05-29T04:06:26.099Z,1936.00
2018-05-29T04:08:19.226Z,1992.00
2018-05-29T04:09:19.176Z,2008.00
2018-05-29T04:11:12.105Z,2040.00
2018-05-29T04:12:12.077Z,2064.00
2018-05-29T04:14:05.076Z,2140.00
2018-05-29T04:15:05.065Z,2180.00
2018-05-29T04:16:58.011Z,2296.00
2018-05-29T04:17:57.944Z,2372.00
2018-05-29T04:19:50.894Z,2536.00
2018-05-29T04:20:50.888Z,2620.00
2018-05-29T04:22:43.830Z,2772.00
2018-05-29T04:23:43.810Z,2832.00
2018-05-29T04:25:36.734Z,2908.00
2018-05-29T04:26:36.723Z,2928.00
2018-05-29T04:28:29.679Z,2924.00
2018-05-29T04:29:29.656Z,2900.00
2018-05-29T04:31:22.599Z,2836.00
2018-05-29T04:32:22.587Z,2800.00
2018-05-29T04:35:06.610Z,2756.00
2018-05-29T04:36:06.583Z,2756.00
2018-05-29T04:37:59.498Z,2772.00
2018-05-29T04:38:59.474Z,2788.00
2018-05-29T04:40:52.441Z,2848.00
2018-05-29T04:41:52.434Z,2872.00
2018-05-29T04:43:45.418Z,2948.00
2018-05-29T04:44:45.384Z,2984.00
2018-05-29T04:46:38.303Z,3024.00
2018-05-29T04:47:38.291Z,3036.00
2018-05-29T04:49:31.271Z,3048.00
2018-05-29T04:50:31.250Z,3072.00
2018-05-29T04:52:24.168Z,3140.00
2018-05-29T04:53:24.163Z,3176.00
2018-05-29T04:55:17.096Z,3268.00
2018-05-29T04:56:17.075Z,3336.00
2018-05-29T04:58:10.063Z,3504.00
2018-05-29T04:59:10.051Z,3600.00
2018-05-29T05:01:02.982Z,3828.00
2018-05-29T05:02:02.961Z,3992.00
2018-05-29T05:03:55.981Z,4356.00
2018-05-29T05:04:55.957Z,4544.00
2018-05-29T05:06:48.979Z,4872.00
2018-05-29T05:07:48.968Z,5036.00
2018-05-29T05:09:41.890Z,5372.00
2018-05-29T05:10:41.872Z,5568.00
2018-05-29T05:12:34.770Z,5960.00
2018-05-29T05:13:34.755Z,6188.00
2018-05-29T05:15:28.015Z,6668.00
2018-05-29T05:16:27.704Z,6936.00
2018-05-29T05:18:20.637Z,7440.00
2018-05-29T05:19:20.644Z,7720.00
2018-05-29T05:21:13.595Z,8208.00
2018-05-29T05:22:13.570Z,8436.00
2018-05-29T05:24:06.548Z,8876.00
2018-05-29T05:25:06.534Z,9116.00
2018-05-29T05:26:59.507Z,9564.00
2018-05-29T05:27:59.490Z,9780.00
2018-05-29T05:29:52.522Z,10156.00
2018-05-29T05:30:52.491Z,10368.00
2018-05-29T05:32:45.515Z,10788.00
2018-05-29T05:33:45.503Z,11028.00
2018-05-29T05:35:38.517Z,11504.00
2018-05-29T05:36:38.497Z,11740.00
2018-05-29T05:38:31.514Z,12072.00
2018-05-29T05:39:31.498Z,12152.00
2018-05-29T05:41:24.529Z,12168.00
2018-05-29T05:42:24.508Z,12128.00
2018-05-29T05:44:17.524Z,12076.00
2018-05-29T05:45:17.514Z,12108.00
2018-05-29T05:47:10.531Z,12280.00
2018-05-29T05:48:10.514Z,12400.00
2018-05-29T05:50:03.523Z,12624.00
2018-05-29T05:51:03.513Z,12756.00
2018-05-29T05:52:56.539Z,12980.00
2018-05-29T05:53:56.521Z,13044.00
2018-05-29T05:55:49.537Z,12992.00
2018-05-29T05:56:49.678Z,12872.00
2018-05-29T05:58:42.538Z,12680.00
2018-05-29T05:59:42.531Z,12540.00
2018-05-29T06:01:35.549Z,12216.00
2018-05-29T06:02:35.530Z,12064.00
2018-05-29T06:04:28.528Z,12096.00
2018-05-29T06:05:28.518Z,12152.00
2018-05-29T06:07:21.555Z,12364.00
2018-05-29T06:08:21.538Z,12472.00
2018-05-29T06:10:14.546Z,12724.00
2018-05-29T06:11:14.536Z,12832.00
2018-05-29T06:13:07.556Z,12968.00
2018-05-29T06:14:07.527Z,12976.00
2018-05-29T06:16:00.576Z,13200.00
2018-05-29T06:17:00.520Z,13376.00
2018-05-29T06:18:53.532Z,13556.00
2018-05-29T06:19:53.512Z,13612.00
2018-05-29T06:21:46.541Z,14000.00
2018-05-29T06:22:46.509Z,14352.00
2018-05-29T06:24:39.512Z,14888.00
2018-05-29T06:25:39.506Z,15112.00
2018-05-29T06:27:32.577Z,15508.00
2018-05-29T06:28:32.650Z,15756.00
2018-05-29T06:30:25.569Z,16100.00
2018-05-29T06:31:25.558Z,16128.00
2018-05-29T06:34:25.774Z,16052.00
2018-05-29T06:36:11.526Z,15804.00
2018-05-29T06:37:11.522Z,15676.00
2018-05-29T06:39:04.597Z,15752.00
2018-05-29T06:40:04.575Z,15836.00
2018-05-29T06:41:57.581Z,16328.00
2018-05-29T06:42:57.574Z,16960.00
2018-05-29T06:44:50.525Z,17664.00
2018-05-29T06:45:50.483Z,17760.00
2018-05-29T06:47:43.437Z,17760.00
2018-05-29T06:48:43.429Z,17728.00
2018-05-29T06:50:36.375Z,17376.00
2018-05-29T06:51:36.356Z,17056.00
2018-05-29T06:53:29.329Z,16692.00
2018-05-29T06:54:29.319Z,16756.00
2018-05-29T06:56:22.324Z,17664.00
2018-05-29T06:57:22.301Z,18176.00
2018-05-29T06:59:15.331Z,19168.00
2018-05-29T07:00:15.318Z,19360.00
2018-05-29T07:02:08.258Z,24704.00
2018-05-29T07:03:08.254Z,32192.00
2018-05-29T07:05:01.257Z,40192.00
2018-05-29T07:06:01.239Z,44768.00
2018-05-29T07:07:54.152Z,56288.00
2018-05-29T07:08:54.148Z,56896.00
2018-05-29T07:10:47.171Z,44928.00
2018-05-29T07:11:47.154Z,48992.00
2018-05-29T07:13:40.128Z,64992.00
2018-05-29T07:14:40.138Z,45632.00
2018-05-29T07:16:33.135Z,28928.00
2018-05-29T07:17:33.136Z,24832.00
2018-05-29T07:19:26.178Z,25920.00
2018-05-29T07:20:26.167Z,28832.00
2018-05-29T07:22:19.211Z,28000.00
2018-05-29T07:23:19.213Z,31680.00
2018-05-29T07:25:12.259Z,29312.00
2018-05-29T07:26:12.246Z,27520.00
2018-05-29T07:28:05.170Z,25568.00
2018-05-29T07:29:05.165Z,25120.00
2018-05-29T07:30:05.175Z,24608.00
2018-05-29T07:31:05.181Z,24352.00
2018-05-29T07:32:05.188Z,24608.00
2018-05-29T07:33:05.193Z,25728.00
2018-05-29T07:34:05.206Z,27200.00
2018-05-29T07:35:05.208Z,28096.00
2018-05-29T07:36:05.204Z,29408.00
2018-05-29T07:37:05.215Z,30944.00
2018-05-29T07:38:05.224Z,32032.00
2018-05-29T07:39:05.223Z,31712.00
2018-05-29T07:40:05.235Z,31296.00
2018-05-29T07:41:05.233Z,30752.00
2018-05-29T07:42:05.245Z,29728.00
2018-05-29T07:43:05.251Z,28544.00
2018-05-29T07:44:05.254Z,27296.00
2018-05-29T07:45:05.288Z,26304.00
2018-05-29T07:46:05.266Z,25600.00
2018-05-29T07:47:05.281Z,25184.00
2018-05-29T07:48:05.289Z,24736.00
2018-05-29T07:49:05.311Z,24320.00
2018-05-29T07:50:05.297Z,24096.00
2018-05-29T07:51:05.306Z,24288.00
2018-05-29T07:52:05.399Z,24800.00
2018-05-29T07:53:05.324Z,25408.00
2018-05-29T07:54:05.318Z,25792.00
2018-05-29T07:55:05.331Z,25952.00
2018-05-29T07:56:05.340Z,25760.00
2018-05-29T07:57:05.338Z,25376.00
2018-05-29T07:58:05.382Z,25056.00
2018-05-29T07:59:05.361Z,25248.00
2018-05-29T08:00:05.367Z,26112.00
2018-05-29T08:01:05.369Z,27360.00
2018-05-29T08:02:05.381Z,29088.00
2018-05-29T08:03:05.378Z,31104.00
2018-05-29T08:04:05.390Z,31072.00
2018-05-29T08:05:05.397Z,30912.00
2018-05-29T08:06:05.400Z,30880.00
2018-05-29T08:07:05.403Z,30592.00
2018-05-29T08:08:05.416Z,30528.00
2018-05-29T08:09:05.420Z,31616.00
2018-05-29T08:10:05.425Z,36896.00
2018-05-29T08:11:05.430Z,44192.00
2018-05-29T08:12:05.436Z,77024.00
2018-05-29T08:13:05.446Z,67872.00
2018-05-29T08:14:05.457Z,81152.00
2018-05-29T08:15:05.461Z,100704.00
2018-05-29T08:16:05.465Z,105280.00
2018-05-29T08:17:05.472Z,79392.00
2018-05-29T08:18:05.481Z,83264.00
2018-05-29T08:19:05.498Z,76512.00
2018-05-29T08:20:05.506Z,59360.00
2018-05-29T08:21:05.522Z,43232.00
2018-05-29T08:22:05.531Z,43328.00
2018-05-29T08:23:05.539Z,46016.00
2018-05-29T08:24:05.553Z,40672.00
2018-05-29T08:25:05.561Z,42112.00
2018-05-29T08:26:05.576Z,43040.00
2018-05-29T08:27:05.581Z,40960.00
2018-05-29T08:28:05.595Z,37440.00
2018-05-29T08:29:05.606Z,40352.00
2018-05-29T08:30:05.620Z,43136.00
2018-05-29T08:31:05.670Z,40480.00
2018-05-29T08:32:05.636Z,39520.00
2018-05-29T08:33:05.647Z,39360.00
2018-05-29T08:34:05.658Z,40096.00
2018-05-29T08:35:05.664Z,43168.00
2018-05-29T08:36:05.674Z,59968.00
2018-05-29T08:37:05.705Z,58816.00
2018-05-29T08:38:05.694Z,47200.00
2018-05-29T08:39:05.721Z,46272.00
2018-05-29T08:40:05.717Z,53376.00
2018-05-29T08:41:05.733Z,49248.00
2018-05-29T08:42:05.733Z,61600.00
2018-05-29T08:43:05.748Z,48000.00
2018-05-29T08:44:05.796Z,51104.00
2018-05-29T08:45:05.763Z,53632.00
2018-05-29T08:46:05.819Z,65216.00
2018-05-29T08:47:05.789Z,61312.00
2018-05-29T08:48:05.804Z,68608.00
2018-05-29T08:49:05.830Z,68192.00
2018-05-29T08:50:05.822Z,79680.00
2018-05-29T08:51:05.846Z,73344.00
2018-05-29T08:52:05.849Z,97216.00
2018-05-29T08:53:05.863Z,119712.00
2018-05-29T08:54:05.874Z,99744.00
2018-05-29T08:55:05.890Z,76096.00
2018-05-29T08:56:05.907Z,66240.00
2018-05-29T08:57:05.953Z,71328.00
2018-05-29T08:58:05.936Z,77056.00
2018-05-29T08:59:05.952Z,60608.00
2018-05-29T09:00:05.966Z,72768.00
2018-05-29T09:01:05.979Z,65568.00
2018-05-29T09:02:05.989Z,62432.00
2018-05-29T09:03:06.012Z,65888.00
2018-05-29T09:04:06.085Z,73504.00
2018-05-29T09:05:06.048Z,73216.00
2018-05-29T09:06:06.067Z,96256.00
2018-05-29T09:07:06.081Z,101760.00
2018-05-29T09:08:06.098Z,83296.00
2018-05-29T09:09:06.107Z,91456.00
2018-05-29T09:10:06.125Z,51136.00
2018-05-29T09:11:06.145Z,43520.00
2018-05-29T09:12:06.156Z,41440.00
2018-05-29T09:13:06.175Z,37280.00
2018-05-29T09:14:06.193Z,37184.00
2018-05-29T09:15:06.208Z,42912.00
2018-05-29T09:16:06.222Z,68768.00
2018-05-29T09:17:06.241Z,63616.00
2018-05-29T09:18:06.255Z,65952.00
2018-05-29T09:19:06.265Z,83648.00
2018-05-29T09:20:06.329Z,84288.00
2018-05-29T09:21:06.309Z,55232.00
2018-05-29T09:22:06.311Z,81472.00
2018-05-29T09:23:06.339Z,87872.00
2018-05-29T09:24:06.338Z,86816.00
2018-05-29T09:25:06.352Z,83456.00
2018-05-29T09:26:06.408Z,81312.00
2018-05-29T09:27:06.389Z,78624.00
2018-05-29T09:28:06.413Z,81248.00
2018-05-29T09:29:06.423Z,83648.00
2018-05-29T09:30:06.446Z,79808.00
2018-05-29T09:31:06.461Z,86720.00
2018-05-29T09:32:06.480Z,90944.00
2018-05-29T09:33:06.500Z,91552.00
2018-05-29T09:34:06.515Z,92896.00
2018-05-29T09:35:06.524Z,88000.00
2018-05-29T09:36:06.550Z,81216.00
2018-05-29T09:37:06.588Z,78080.00
2018-05-29T09:38:06.592Z,86240.00
2018-05-29T09:39:06.611Z,85344.00
2018-05-29T09:40:06.625Z,90432.00
2018-05-29T09:41:06.646Z,82752.00
2018-05-29T09:42:06.670Z,91328.00
2018-05-29T09:43:06.690Z,90112.00
2018-05-29T09:44:06.713Z,47936.00
2018-05-29T09:45:06.730Z,90560.00
2018-05-29T09:46:06.750Z,91456.00
2018-05-29T09:47:06.787Z,54528.00
2018-05-29T09:48:06.789Z,41280.00
2018-05-29T09:49:06.808Z,40448.00
2018-05-29T09:50:06.823Z,43328.00
2018-05-29T09:51:06.863Z,52128.00
2018-05-29T09:52:06.874Z,68960.00
2018-05-29T09:53:06.903Z,99616.00
2018-05-29T09:54:06.911Z,101920.00
2018-05-29T09:55:06.946Z,59840.00
2018-05-29T09:56:06.942Z,72192.00
2018-05-29T09:57:06.972Z,78784.00
2018-05-29T09:58:06.977Z,91264.00
2018-05-29T09:59:07.001Z,100960.00
2018-05-29T10:00:07.021Z,99520.00
2018-05-29T10:01:07.055Z,98016.00
2018-05-29T10:02:07.064Z,83872.00
2018-05-29T10:03:07.082Z,90336.00
2018-05-29T10:04:07.100Z,44512.00
2018-05-29T10:05:07.123Z,41792.00
2018-05-29T10:06:07.133Z,37600.00
2018-05-29T10:07:07.239Z,36192.00
2018-05-29T10:08:07.177Z,37440.00
2018-05-29T10:09:07.193Z,40032.00
2018-05-29T10:10:07.208Z,41312.00
2018-05-29T10:11:07.234Z,110528.00
2018-05-29T10:12:07.249Z,61248.00
2018-05-29T10:13:07.265Z,120480.00
2018-05-29T10:14:07.277Z,101920.00
2018-05-29T10:15:07.300Z,85664.00
2018-05-29T10:16:07.311Z,45568.00
2018-05-29T10:17:07.399Z,55264.00
2018-05-29T10:18:07.351Z,84160.00
2018-05-29T10:19:07.371Z,89728.00
2018-05-29T10:20:07.382Z,64448.00
2018-05-29T10:21:07.397Z,55008.00
2018-05-29T10:22:07.431Z,93568.00
2018-05-29T10:23:07.438Z,92704.00
2018-05-29T10:24:07.446Z,108832.00
2018-05-29T10:25:07.466Z,87328.00
2018-05-29T10:26:07.479Z,115808.00
2018-05-29T10:27:07.494Z,103392.00
2018-05-29T10:28:07.519Z,101152.00
2018-05-29T10:29:07.538Z,83392.00
2018-05-29T10:30:07.552Z,30240.00
2018-05-29T10:31:07.573Z,30080.00
2018-05-29T10:32:07.593Z,42048.00
2018-05-29T10:33:07.614Z,95296.00
2018-05-29T10:34:07.624Z,93760.00
2018-05-29T10:35:07.638Z,123488.00
2018-05-29T10:36:07.662Z,56640.00
2018-05-29T10:37:07.678Z,52768.00
2018-05-29T10:38:07.701Z,64192.00
2018-05-29T10:39:07.717Z,119104.00
2018-05-29T10:40:07.730Z,112512.00
2018-05-29T10:41:07.756Z,79936.00
2018-05-29T10:42:07.779Z,82592.00
2018-05-29T10:43:07.789Z,112640.00
2018-05-29T10:44:07.799Z,96416.00
2018-05-29T10:45:07.822Z,81536.00
2018-05-29T10:46:07.873Z,79680.00
2018-05-29T10:47:07.863Z,47200.00
2018-05-29T10:48:07.883Z,101536.00
2018-05-29T10:49:07.899Z,75904.00
2018-05-29T10:50:07.921Z,46688.00
2018-05-29T10:51:07.943Z,38944.00
2018-05-29T10:52:07.954Z,37312.00
2018-05-29T10:53:07.972Z,41056.00
2018-05-29T10:54:07.989Z,101632.00
2018-05-29T10:55:08.015Z,36480.00
2018-05-29T10:56:08.032Z,41120.00
2018-05-29T10:57:08.049Z,84992.00
2018-05-29T10:58:08.061Z,35744.00
2018-05-29T10:59:08.103Z,35808.00
2018-05-29T11:00:08.112Z,37504.00
2018-05-29T11:01:08.111Z,35456.00
2018-05-29T11:02:08.126Z,35424.00
2018-05-29T11:03:08.141Z,38688.00
2018-05-29T11:04:08.163Z,41056.00
2018-05-29T11:05:08.171Z,41536.00
2018-05-29T11:06:08.193Z,42432.00
2018-05-29T11:07:08.205Z,42944.00
2018-05-29T11:08:08.220Z,42336.00
2018-05-29T11:09:08.229Z,45248.00
2018-05-29T11:10:08.242Z,46656.00
2018-05-29T11:11:08.276Z,55360.00
2018-05-29T11:12:08.271Z,55328.00
2018-05-29T11:13:08.295Z,44896.00
2018-05-29T11:14:08.298Z,46496.00
2018-05-29T11:15:08.307Z,46080.00
2018-05-29T11:16:08.320Z,44640.00
2018-05-29T11:17:08.332Z,45184.00
2018-05-29T11:18:08.338Z,45056.00
2018-05-29T11:19:08.362Z,41056.00
2018-05-29T11:20:08.374Z,41312.00
2018-05-29T11:21:08.382Z,40480.00
2018-05-29T11:22:08.402Z,41472.00
2018-05-29T11:23:08.408Z,45024.00
2018-05-29T11:24:08.422Z,43040.00
2018-05-29T11:25:08.430Z,43968.00
2018-05-29T11:26:08.441Z,42016.00
2018-05-29T11:27:08.459Z,40256.00
2018-05-29T11:28:08.468Z,38048.00
2018-05-29T11:29:08.479Z,35968.00
2018-05-29T11:30:08.486Z,34368.00
2018-05-29T11:31:08.501Z,33184.00
2018-05-29T11:32:08.513Z,32288.00
2018-05-29T11:33:08.523Z,31520.00
2018-05-29T11:34:08.531Z,30912.00
2018-05-29T11:35:08.543Z,30432.00
2018-05-29T11:36:08.556Z,30144.00
2018-05-29T11:37:08.565Z,29856.00
2018-05-29T11:38:08.579Z,29504.00
2018-05-29T11:39:08.580Z,29248.00
2018-05-29T11:40:08.596Z,29120.00
2018-05-29T11:41:08.601Z,29056.00
2018-05-29T11:42:08.622Z,28896.00
2018-05-29T11:43:08.625Z,28480.00
2018-05-29T11:44:08.635Z,27776.00
2018-05-29T11:45:08.645Z,26912.00
2018-05-29T11:46:08.650Z,26048.00
2018-05-29T11:47:08.659Z,25280.00
2018-05-29T11:48:08.669Z,24640.00
2018-05-29T11:49:08.686Z,24160.00
2018-05-29T11:50:08.691Z,23872.00
2018-05-29T11:51:08.699Z,23584.00
2018-05-29T11:52:08.704Z,23360.00
2018-05-29T11:53:08.712Z,23328.00
2018-05-29T11:54:08.726Z,23328.00
2018-05-29T11:55:08.732Z,23424.00
2018-05-29T11:56:08.758Z,23744.00
2018-05-29T11:57:08.769Z,24256.00
2018-05-29T11:58:08.755Z,25152.00
2018-05-29T11:59:08.758Z,26304.00
2018-05-29T12:00:08.769Z,27552.00
2018-05-29T12:01:08.775Z,28960.00
2018-05-29T12:02:08.796Z,30144.00
2018-05-29T12:03:08.787Z,31328.00
2018-05-29T12:04:08.809Z,32704.00
2018-05-29T12:05:08.805Z,33696.00
2018-05-29T12:06:08.811Z,34496.00
2018-05-29T12:07:08.821Z,35072.00
2018-05-29T12:08:08.828Z,35584.00
2018-05-29T12:09:08.835Z,35456.00
2018-05-29T12:10:08.842Z,35136.00
2018-05-29T12:11:08.857Z,35008.00
2018-05-29T12:12:08.862Z,35008.00
2018-05-29T12:13:08.868Z,35104.00
2018-05-29T12:14:08.876Z,35488.00
2018-05-29T12:15:08.880Z,35616.00
2018-05-29T12:16:08.884Z,36160.00
2018-05-29T12:17:08.893Z,37184.00
2018-05-29T12:18:08.905Z,36352.00
2018-05-29T12:19:08.912Z,36352.00
2018-05-29T12:20:08.935Z,36512.00
2018-05-29T12:21:08.929Z,36960.00
2018-05-29T12:22:08.937Z,36960.00
2018-05-29T12:23:08.945Z,36736.00
2018-05-29T12:24:08.951Z,36544.00
2018-05-29T12:25:08.961Z,36192.00
2018-05-29T12:26:08.971Z,35872.00
2018-05-29T12:27:08.975Z,35584.00
2018-05-29T12:28:09.013Z,36000.00
2018-05-29T12:29:08.992Z,35232.00
2018-05-29T12:30:09.002Z,35104.00
2018-05-29T12:31:09.012Z,34976.00
2018-05-29T12:32:09.014Z,34464.00
2018-05-29T12:33:09.031Z,33856.00
2018-05-29T12:34:09.036Z,33536.00
2018-05-29T12:35:09.042Z,33344.00
2018-05-29T12:36:09.057Z,33248.00
2018-05-29T12:37:09.072Z,33312.00
2018-05-29T12:38:09.067Z,33760.00
2018-05-29T12:39:09.080Z,33600.00
2018-05-29T12:40:09.087Z,33600.00
2018-05-29T12:41:09.098Z,33920.00
2018-05-29T12:42:09.101Z,34752.00
2018-05-29T12:43:09.109Z,34880.00
2018-05-29T12:44:09.120Z,34336.00
2018-05-29T12:45:09.129Z,34944.00
2018-05-29T12:46:09.165Z,35168.00
2018-05-29T12:47:09.138Z,34656.00
2018-05-29T12:48:09.154Z,34176.00
2018-05-29T12:49:09.169Z,33792.00
2018-05-29T12:50:09.173Z,33760.00
2018-05-29T12:51:09.173Z,33728.00
2018-05-29T12:52:09.182Z,33056.00
2018-05-29T12:53:09.196Z,32416.00
2018-05-29T12:54:09.208Z,31968.00
2018-05-29T12:55:09.212Z,31264.00
2018-05-29T12:56:09.221Z,30784.00
2018-05-29T12:57:09.229Z,30528.00
2018-05-29T12:58:09.238Z,30912.00
2018-05-29T12:59:09.256Z,30912.00
2018-05-29T13:00:09.257Z,30784.00
2018-05-29T13:01:09.269Z,30528.00
2018-05-29T13:02:09.280Z,30656.00
2018-05-29T13:03:09.282Z,29760.00
2018-05-29T13:04:09.287Z,28960.00
2018-05-29T13:05:09.295Z,27808.00
2018-05-29T13:06:09.300Z,26560.00
2018-05-29T13:07:09.339Z,24864.00
2018-05-29T13:08:09.317Z,23744.00
2018-05-29T13:09:09.325Z,22272.00
2018-05-29T13:10:09.331Z,20800.00
2018-05-29T13:11:09.345Z,20160.00
2018-05-29T13:12:09.346Z,21600.00
2018-05-29T13:13:09.355Z,21856.00
2018-05-29T13:14:09.360Z,20960.00
2018-05-29T13:15:09.382Z,22464.00
2018-05-29T13:16:09.375Z,23200.00
2018-05-29T13:17:09.384Z,22272.00
2018-05-29T13:18:09.395Z,21408.00
2018-05-29T13:19:09.403Z,19488.00
2018-05-29T13:20:09.401Z,17512.00
2018-05-29T13:21:09.415Z,16124.00
2018-05-29T13:22:09.413Z,15440.00
2018-05-29T13:23:09.449Z,15756.00
2018-05-29T13:24:09.432Z,16596.00
2018-05-29T13:25:09.438Z,17676.00
2018-05-29T13:26:09.438Z,19680.00
2018-05-29T13:27:09.515Z,20096.00
2018-05-29T13:28:09.506Z,19456.00
2018-05-29T13:29:09.462Z,18112.00
2018-05-29T13:30:09.468Z,16988.00
2018-05-29T13:31:09.475Z,16132.00
2018-05-29T13:32:09.478Z,15228.00
2018-05-29T13:33:09.483Z,14280.00
2018-05-29T13:34:09.490Z,13232.00
2018-05-29T13:35:09.534Z,12088.00
2018-05-29T13:36:09.506Z,11492.00
2018-05-29T13:37:09.509Z,11292.00
2018-05-29T13:38:09.517Z,10296.00
2018-05-29T13:39:09.531Z,9420.00
2018-05-29T13:40:09.524Z,8820.00
2018-05-29T13:41:09.534Z,9048.00
2018-05-29T13:42:09.535Z,10120.00
2018-05-29T13:43:09.541Z,10132.00
2018-05-29T13:44:09.545Z,9320.00
2018-05-29T13:45:09.541Z,8996.00
2018-05-29T13:46:09.541Z,8568.00
2018-05-29T13:47:09.558Z,8436.00
2018-05-29T13:48:09.563Z,8924.00
2018-05-29T13:49:09.603Z,8348.00
2018-05-29T13:50:09.569Z,7060.00
2018-05-29T13:51:09.569Z,7504.00
2018-05-29T13:52:09.585Z,8176.00
2018-05-29T13:53:09.580Z,8172.00
2018-05-29T13:54:09.585Z,7528.00
2018-05-29T13:55:09.592Z,6916.00
2018-05-29T13:56:09.600Z,7348.00
2018-05-29T13:57:09.607Z,7844.00
2018-05-29T13:58:09.603Z,7492.00
2018-05-29T13:59:09.618Z,6820.00
2018-05-29T14:00:09.599Z,8452.00
2018-05-29T14:01:09.609Z,10956.00
2018-05-29T14:02:09.610Z,10188.00
2018-05-29T14:03:09.620Z,8492.00
2018-05-29T14:04:09.621Z,7792.00
2018-05-29T14:05:09.625Z,7568.00
2018-05-29T14:06:09.625Z,6880.00
2018-05-29T14:07:09.631Z,6496.00
2018-05-29T14:08:09.637Z,6464.00
2018-05-29T14:09:09.652Z,8068.00